createdAt,value
2023-05-20T00:01:56.819Z,15.34
2023-05-20T00:04:24.796Z,15.31
2023-05-20T00:06:52.886Z,15.26
2023-05-20T00:09:20.872Z,15.25
2023-05-20T00:11:48.877Z,15.21
2023-05-20T00:14:16.872Z,15.18
2023-05-20T00:16:46.234Z,15.13
2023-05-20T00:19:14.308Z,14.72
2023-05-20T00:21:42.302Z,14.95
2023-05-20T00:24:10.232Z,14.89
2023-05-20T00:26:38.199Z,14.75
2023-05-20T00:29:06.171Z,14.82
2023-05-20T00:31:34.159Z,14.80
2023-05-20T00:34:03.746Z,14.77
2023-05-20T00:36:31.766Z,14.70
2023-05-20T00:38:59.973Z,14.08
2023-05-20T00:41:28.348Z,13.65
2023-05-20T00:43:56.876Z,14.08
2023-05-20T00:46:25.567Z,14.05
2023-05-20T00:48:54.354Z,14.10
2023-05-20T00:51:23.924Z,14.21
2023-05-20T00:53:52.034Z,14.21
2023-05-20T00:56:20.195Z,14.28
2023-05-20T00:58:48.768Z,13.74
2023-05-20T01:01:16.804Z,13.66
2023-05-20T01:03:44.880Z,13.92
2023-05-20T01:06:12.850Z,14.08
2023-05-20T01:08:42.414Z,14.07
2023-05-20T01:11:14.840Z,14.07
2023-05-20T01:13:47.916Z,14.15
2023-05-20T01:16:18.543Z,14.17
2023-05-20T01:18:48.711Z,14.15
2023-05-20T01:21:16.993Z,14.20
2023-05-20T01:23:46.280Z,14.24
2023-05-20T01:26:14.862Z,14.29
2023-05-20T01:28:46.013Z,14.34
2023-05-20T01:31:19.233Z,14.22
2023-05-20T01:33:51.993Z,14.24
2023-05-20T01:36:22.585Z,14.32
2023-05-20T01:38:54.028Z,14.35
2023-05-20T01:41:23.152Z,14.42
2023-05-20T01:43:51.358Z,13.95
2023-05-20T01:46:19.422Z,14.19
2023-05-20T01:48:47.397Z,14.23
2023-05-20T01:51:15.350Z,14.33
2023-05-20T01:53:43.328Z,14.26
2023-05-20T01:56:12.647Z,14.35
2023-05-20T01:58:40.607Z,14.42
2023-05-20T02:01:08.604Z,14.47
2023-05-20T02:03:36.552Z,14.54
2023-05-20T02:06:04.678Z,14.51
2023-05-20T02:08:32.719Z,14.61
2023-05-20T02:11:00.702Z,14.62
2023-05-20T02:13:30.007Z,14.67
2023-05-20T02:15:57.990Z,14.71
2023-05-20T02:18:26.695Z,14.69
2023-05-20T02:20:54.745Z,14.68
2023-05-20T02:23:22.709Z,14.73
2023-05-20T02:25:50.899Z,14.77
2023-05-20T02:28:18.843Z,14.84
2023-05-20T02:30:48.368Z,14.84
2023-05-20T02:33:16.360Z,14.84
2023-05-20T02:35:44.355Z,14.85
2023-05-20T02:38:12.733Z,14.85
2023-05-20T02:40:40.874Z,14.87
2023-05-20T02:43:08.814Z,14.85
2023-05-20T02:45:36.848Z,14.82
2023-05-20T02:48:06.898Z,14.80
2023-05-20T02:50:34.945Z,14.79
2023-05-20T02:53:02.907Z,14.47
2023-05-20T02:55:30.845Z,14.58
2023-05-20T02:57:58.840Z,14.64
2023-05-20T03:00:28.791Z,14.64
2023-05-20T03:02:56.806Z,14.67
2023-05-20T03:05:27.550Z,14.66
2023-05-20T03:07:55.598Z,14.56
2023-05-20T03:10:23.730Z,14.57
2023-05-20T03:12:51.689Z,14.59
2023-05-20T03:15:19.719Z,14.56
2023-05-20T03:17:47.681Z,14.56
2023-05-20T03:20:16.786Z,14.57
2023-05-20T03:22:46.132Z,14.56
2023-05-20T03:25:14.141Z,14.57
2023-05-20T03:27:43.048Z,14.58
2023-05-20T03:30:11.645Z,14.56
2023-05-20T03:32:39.644Z,14.53
2023-05-20T03:35:08.816Z,14.55
2023-05-20T03:37:36.981Z,14.55
2023-05-20T03:40:07.939Z,14.45
2023-05-20T03:42:35.930Z,14.57
2023-05-20T03:45:03.923Z,14.59
2023-05-20T03:47:32.041Z,14.62
2023-05-20T03:50:00.152Z,14.67
2023-05-20T03:52:28.184Z,14.70
2023-05-20T03:54:57.210Z,14.74
2023-05-20T03:57:26.537Z,14.80
2023-05-20T03:59:54.694Z,14.87
2023-05-20T04:02:23.013Z,14.94
2023-05-20T04:04:53.082Z,14.97
2023-05-20T04:07:21.121Z,14.99
2023-05-20T04:09:49.038Z,15.08
2023-05-20T04:12:19.473Z,15.18
2023-05-20T04:14:50.186Z,15.23
2023-05-20T04:17:18.157Z,15.28
2023-05-20T04:19:46.274Z,15.35
2023-05-20T04:22:14.198Z,15.48
2023-05-20T04:24:42.195Z,15.49
2023-05-20T04:27:11.240Z,15.55
2023-05-20T04:29:41.609Z,15.61
2023-05-20T04:32:11.624Z,15.68
2023-05-20T04:34:39.633Z,15.76
2023-05-20T04:37:07.894Z,15.80
2023-05-20T04:39:36.528Z,15.88
2023-05-20T04:42:04.934Z,15.94
2023-05-20T04:44:32.984Z,16.02
2023-05-20T04:47:00.938Z,16.07
2023-05-20T04:49:30.346Z,16.14
2023-05-20T04:51:58.702Z,16.27
2023-05-20T04:54:26.692Z,16.42
2023-05-20T04:56:54.638Z,16.76
2023-05-20T04:59:22.568Z,17.10
2023-05-20T05:01:50.666Z,17.44
2023-05-20T05:04:18.729Z,17.76
2023-05-20T05:06:49.255Z,17.83
2023-05-20T05:09:17.217Z,17.76
2023-05-20T05:11:45.181Z,17.71
2023-05-20T05:14:13.132Z,17.87
2023-05-20T05:16:41.092Z,18.24
2023-05-20T05:19:09.754Z,18.28
2023-05-20T05:21:37.710Z,18.55
2023-05-20T05:24:07.450Z,18.80
2023-05-20T05:26:35.473Z,18.91
2023-05-20T05:29:03.385Z,19.14
2023-05-20T05:31:31.329Z,19.57
2023-05-20T05:33:59.284Z,19.60
2023-05-20T05:36:27.252Z,19.52
2023-05-20T05:38:55.182Z,19.40
2023-05-20T05:41:24.506Z,19.19
2023-05-20T05:43:53.664Z,18.92
2023-05-20T05:46:21.885Z,19.05
2023-05-20T05:48:51.003Z,18.89
2023-05-20T05:51:18.980Z,18.86
2023-05-20T05:53:46.913Z,18.80
2023-05-20T05:56:14.861Z,18.54
2023-05-20T05:58:44.241Z,18.59
2023-05-20T06:01:12.217Z,18.69
2023-05-20T06:03:40.269Z,18.58
2023-05-20T06:06:08.335Z,18.51
2023-05-20T06:08:36.308Z,18.63
2023-05-20T06:11:04.266Z,18.54
2023-05-20T06:13:32.188Z,18.53
2023-05-20T06:16:01.518Z,18.56
2023-05-20T06:18:29.554Z,18.56
2023-05-20T06:20:57.842Z,18.57
2023-05-20T06:23:26.213Z,18.50
2023-05-20T06:25:54.250Z,18.23
2023-05-20T06:28:22.211Z,18.07
2023-05-20T06:30:50.185Z,18.05
2023-05-20T06:33:20.344Z,18.21
2023-05-20T06:35:48.628Z,18.36
2023-05-20T06:38:16.645Z,18.24
2023-05-20T06:40:44.612Z,18.44
2023-05-20T06:43:12.562Z,18.56
2023-05-20T06:45:40.573Z,18.63
2023-05-20T06:48:08.765Z,19.01
2023-05-20T06:50:38.160Z,19.08
2023-05-20T06:53:06.123Z,18.62
2023-05-20T06:55:34.273Z,18.83
2023-05-20T06:58:02.459Z,19.20
2023-05-20T07:00:31.118Z,19.25
2023-05-20T07:02:59.121Z,19.38
2023-05-20T07:05:28.975Z,19.58
2023-05-20T07:07:58.407Z,19.58
2023-05-20T07:10:26.493Z,19.47
2023-05-20T07:12:54.544Z,19.33
2023-05-20T07:15:22.588Z,19.38
2023-05-20T07:17:50.637Z,19.45
2023-05-20T07:20:18.822Z,19.37
2023-05-20T07:22:48.772Z,19.12
2023-05-20T07:25:18.273Z,19.27
2023-05-20T07:27:46.283Z,19.13
2023-05-20T07:30:14.245Z,19.09
2023-05-20T07:32:42.407Z,19.27
2023-05-20T07:35:10.739Z,19.21
2023-05-20T07:37:38.721Z,19.28
2023-05-20T07:40:08.982Z,19.24
2023-05-20T07:42:38.347Z,19.28
2023-05-20T07:45:07.320Z,19.06
2023-05-20T07:47:35.276Z,18.93
2023-05-20T07:50:03.283Z,18.98
2023-05-20T07:52:35.670Z,18.84
2023-05-20T07:55:12.384Z,19.04
2023-05-20T07:57:43.597Z,19.22
2023-05-20T08:00:13.734Z,19.45
2023-05-20T08:02:41.808Z,19.37
2023-05-20T08:05:10.457Z,19.63
2023-05-20T08:07:38.428Z,19.72
2023-05-20T08:10:07.490Z,19.85
2023-05-20T08:12:35.481Z,19.77
2023-05-20T08:15:05.294Z,19.97
2023-05-20T08:17:34.155Z,19.72
2023-05-20T08:20:02.565Z,19.74
2023-05-20T08:22:30.514Z,19.61
2023-05-20T08:24:58.615Z,19.48
2023-05-20T08:27:26.605Z,19.59
2023-05-20T08:29:54.600Z,19.77
2023-05-20T08:32:23.940Z,19.84
2023-05-20T08:34:51.937Z,19.67
2023-05-20T08:37:19.918Z,19.37
2023-05-20T08:39:49.321Z,19.30
2023-05-20T08:42:21.634Z,19.62
2023-05-20T08:44:49.934Z,19.27
2023-05-20T08:47:17.918Z,19.18
2023-05-20T08:49:47.347Z,19.41
2023-05-20T08:52:17.685Z,19.57
2023-05-20T08:54:47.757Z,19.57
2023-05-20T08:57:15.784Z,19.41
2023-05-20T08:59:45.134Z,19.67
2023-05-20T09:02:13.385Z,19.95
2023-05-20T09:04:41.651Z,19.85
2023-05-20T09:07:11.063Z,19.91
2023-05-20T09:09:39.044Z,20.01
2023-05-20T09:12:07.912Z,20.37
2023-05-20T09:14:35.863Z,20.87
2023-05-20T09:17:08.506Z,21.00
2023-05-20T09:19:36.558Z,21.13
2023-05-20T09:22:06.249Z,21.21
2023-05-20T09:24:35.594Z,21.21
2023-05-20T09:27:03.541Z,21.01
2023-05-20T09:29:34.764Z,21.23
2023-05-20T09:32:04.185Z,20.76
2023-05-20T09:34:32.408Z,21.04
2023-05-20T09:37:01.563Z,21.17
2023-05-20T09:39:35.202Z,21.37
2023-05-20T09:42:07.186Z,21.43
2023-05-20T09:44:36.272Z,21.28
2023-05-20T09:47:08.607Z,21.63
2023-05-20T09:49:37.348Z,21.66
2023-05-20T09:52:06.201Z,21.82
2023-05-20T09:54:36.848Z,22.34
2023-05-20T09:57:08.520Z,22.37
2023-05-20T09:59:38.246Z,22.26
2023-05-20T10:02:08.183Z,21.78
2023-05-20T10:04:38.455Z,22.34
2023-05-20T10:07:42.346Z,22.03
2023-05-20T10:10:22.850Z,21.73
2023-05-20T10:13:04.977Z,22.11
2023-05-20T10:15:45.283Z,22.42
2023-05-20T10:18:28.851Z,22.75
2023-05-20T10:20:56.875Z,23.11
2023-05-20T10:23:26.011Z,23.05
2023-05-20T10:25:54.727Z,23.21
2023-05-20T10:28:36.198Z,23.46
2023-05-20T10:31:04.750Z,23.40
2023-05-20T10:33:43.644Z,23.19
2023-05-20T10:36:12.267Z,23.35
2023-05-20T10:38:50.728Z,23.36
2023-05-20T10:41:23.143Z,23.73
2023-05-20T10:44:03.231Z,23.38
2023-05-20T10:46:41.959Z,23.50
2023-05-20T10:49:24.199Z,23.68
2023-05-20T10:51:55.689Z,23.68
2023-05-20T10:54:24.190Z,23.66
2023-05-20T10:56:54.021Z,23.60
2023-05-20T10:59:23.697Z,23.84
2023-05-20T11:01:52.129Z,24.23
2023-05-20T11:04:20.745Z,24.40
2023-05-20T11:06:54.313Z,24.58
2023-05-20T11:09:23.652Z,24.44
2023-05-20T11:11:52.363Z,24.29
2023-05-20T11:14:20.513Z,24.65
2023-05-20T11:16:53.102Z,24.70
2023-05-20T11:19:21.597Z,24.67
2023-05-20T11:21:50.048Z,24.51
2023-05-20T11:24:26.558Z,24.57
2023-05-20T11:26:54.947Z,24.79
2023-05-20T11:29:23.286Z,25.08
2023-05-20T11:31:53.434Z,25.24
2023-05-20T11:34:24.983Z,25.52
2023-05-20T11:36:58.767Z,25.03
2023-05-20T11:39:30.563Z,24.90
2023-05-20T11:41:59.580Z,24.94
2023-05-20T11:44:27.544Z,24.99
2023-05-20T11:47:02.505Z,24.70
2023-05-20T11:49:31.012Z,24.96
2023-05-20T11:51:59.156Z,24.59
2023-05-20T11:54:27.519Z,24.69
2023-05-20T11:56:56.476Z,24.87
2023-05-20T11:59:25.576Z,24.68
2023-05-20T12:01:53.626Z,24.55
2023-05-20T12:04:23.343Z,24.57
2023-05-20T12:06:51.539Z,24.71
2023-05-20T12:09:20.133Z,24.51
2023-05-20T12:11:48.158Z,24.55
2023-05-20T12:14:16.081Z,24.88
2023-05-20T12:16:44.038Z,24.96
2023-05-20T12:19:12.008Z,25.20
2023-05-20T12:21:41.567Z,25.27
2023-05-20T12:24:10.435Z,25.43
2023-05-20T12:26:38.386Z,25.32
2023-05-20T12:29:07.000Z,25.02
2023-05-20T12:31:35.334Z,24.74
2023-05-20T12:34:03.530Z,24.59
2023-05-20T12:36:31.721Z,24.47
2023-05-20T12:39:01.105Z,24.70
2023-05-20T12:41:29.026Z,23.96
2023-05-20T12:43:56.977Z,23.62
2023-05-20T12:46:25.115Z,23.66
2023-05-20T12:48:53.280Z,23.65
2023-05-20T12:51:21.244Z,23.61
2023-05-20T12:53:49.281Z,23.47
2023-05-20T12:56:19.402Z,23.25
2023-05-20T12:58:47.405Z,23.68
2023-05-20T13:01:15.449Z,23.89
2023-05-20T13:03:43.456Z,24.10
2023-05-20T13:06:11.442Z,23.98
2023-05-20T13:08:39.410Z,23.95
2023-05-20T13:11:07.377Z,23.73
2023-05-20T13:13:36.705Z,23.84
2023-05-20T13:16:05.077Z,23.81
2023-05-20T13:18:33.036Z,23.64
2023-05-20T13:21:01.273Z,23.47
2023-05-20T13:23:29.219Z,23.57
2023-05-20T13:25:57.305Z,23.56
2023-05-20T13:28:25.265Z,23.39
2023-05-20T13:30:54.687Z,23.26
2023-05-20T13:33:24.174Z,23.30
2023-05-20T13:35:52.149Z,23.02
2023-05-20T13:38:20.094Z,23.00
2023-05-20T13:40:49.038Z,22.74
2023-05-20T13:43:17.222Z,22.77
2023-05-20T13:45:45.395Z,22.94
2023-05-20T13:48:14.769Z,22.93
2023-05-20T13:50:42.719Z,22.99
2023-05-20T13:53:12.636Z,22.79
2023-05-20T13:55:40.768Z,22.67
2023-05-20T13:58:09.315Z,22.73
2023-05-20T14:00:37.435Z,22.75
2023-05-20T14:03:09.013Z,22.76
2023-05-20T14:05:38.670Z,22.52
2023-05-20T14:08:06.852Z,22.41
2023-05-20T14:10:35.163Z,22.26
2023-05-20T14:13:03.417Z,22.21
2023-05-20T14:15:31.555Z,22.35
2023-05-20T14:17:59.921Z,22.14
2023-05-20T14:20:27.921Z,22.28
2023-05-20T14:22:57.361Z,22.49
2023-05-20T14:25:25.323Z,22.63
2023-05-20T14:27:53.303Z,22.70
2023-05-20T14:30:21.451Z,22.84
2023-05-20T14:32:49.467Z,22.85
2023-05-20T14:35:18.332Z,23.08
2023-05-20T14:37:46.441Z,23.19
2023-05-20T14:40:16.673Z,23.30
2023-05-20T14:42:44.677Z,23.14
2023-05-20T14:45:12.939Z,22.87
2023-05-20T14:47:41.145Z,22.80
2023-05-20T14:50:09.595Z,22.81
2023-05-20T14:52:37.547Z,22.85
2023-05-20T14:55:06.190Z,22.93
2023-05-20T14:57:35.690Z,23.16
2023-05-20T15:00:04.275Z,23.13
2023-05-20T15:02:32.387Z,23.21
2023-05-20T15:05:00.393Z,22.79
2023-05-20T15:07:28.388Z,22.90
2023-05-20T15:09:56.438Z,22.95
2023-05-20T15:12:24.425Z,22.98
2023-05-20T15:14:53.834Z,22.98
2023-05-20T15:17:22.035Z,22.99
2023-05-20T15:19:50.023Z,22.93
2023-05-20T15:22:19.119Z,22.97
2023-05-20T15:24:47.094Z,22.93
2023-05-20T15:27:15.064Z,22.94
2023-05-20T15:29:42.994Z,22.75
2023-05-20T15:32:12.314Z,22.55
2023-05-20T15:34:40.278Z,22.60
2023-05-20T15:37:08.291Z,22.52
2023-05-20T15:39:38.651Z,22.37
2023-05-20T15:42:06.976Z,22.37
2023-05-20T15:44:36.139Z,22.42
2023-05-20T15:47:05.933Z,22.05
2023-05-20T15:49:35.498Z,22.06
2023-05-20T15:52:04.438Z,22.05
2023-05-20T15:54:32.849Z,21.81
2023-05-20T15:57:01.125Z,21.73
2023-05-20T15:59:29.117Z,21.87
2023-05-20T16:01:57.110Z,21.63
2023-05-20T16:04:25.213Z,21.52
2023-05-20T16:06:54.712Z,21.54
2023-05-20T16:09:22.731Z,21.57
2023-05-20T16:11:50.697Z,21.60
2023-05-20T16:14:18.687Z,21.37
2023-05-20T16:16:46.718Z,21.25
2023-05-20T16:19:14.778Z,20.98
2023-05-20T16:21:42.773Z,20.73
2023-05-20T16:24:12.485Z,20.81
2023-05-20T16:26:40.621Z,20.74
2023-05-20T16:29:08.575Z,20.57
2023-05-20T16:31:36.627Z,20.43
2023-05-20T16:34:05.081Z,20.61
2023-05-20T16:36:33.037Z,20.62
2023-05-20T16:39:01.046Z,20.57
2023-05-20T16:41:30.772Z,20.31
2023-05-20T16:43:58.742Z,20.11
2023-05-20T16:46:26.735Z,19.78
2023-05-20T16:48:54.834Z,19.62
2023-05-20T16:51:23.050Z,19.50
2023-05-20T16:53:51.081Z,19.77
2023-05-20T16:56:19.344Z,19.95
2023-05-20T16:58:49.921Z,20.01
2023-05-20T17:01:19.360Z,20.18
2023-05-20T17:03:47.396Z,20.19
2023-05-20T17:06:15.496Z,20.23
2023-05-20T17:08:43.478Z,20.18
2023-05-20T17:11:11.434Z,20.23
2023-05-20T17:13:41.554Z,20.22
2023-05-20T17:16:12.164Z,20.21
2023-05-20T17:18:40.336Z,20.19
2023-05-20T17:21:08.302Z,20.14
2023-05-20T17:23:36.277Z,19.96
2023-05-20T17:26:04.613Z,19.66
2023-05-20T17:28:32.581Z,19.76
2023-05-20T17:31:00.563Z,19.74
2023-05-20T17:33:29.930Z,19.69
2023-05-20T17:35:58.169Z,19.45
2023-05-20T17:38:26.967Z,19.36
2023-05-20T17:40:55.145Z,19.41
2023-05-20T17:43:25.162Z,19.28
2023-05-20T17:45:53.336Z,18.68
2023-05-20T17:48:21.390Z,18.64
2023-05-20T17:50:50.886Z,18.32
2023-05-20T17:53:21.696Z,18.06
2023-05-20T17:55:49.871Z,17.89
2023-05-20T17:58:18.025Z,17.98
2023-05-20T18:00:45.998Z,18.02
2023-05-20T18:03:14.221Z,18.10
2023-05-20T18:05:42.470Z,18.01
2023-05-20T18:08:11.879Z,18.24
2023-05-20T18:10:40.075Z,18.05
2023-05-20T18:13:08.140Z,18.09
2023-05-20T18:15:36.078Z,17.88
2023-05-20T18:18:04.121Z,18.19
2023-05-20T18:20:32.210Z,18.46
2023-05-20T18:23:00.277Z,18.20
2023-05-20T18:25:29.632Z,18.13
2023-05-20T18:27:57.563Z,18.15
2023-05-20T18:30:25.511Z,18.20
2023-05-20T18:32:53.581Z,18.37
2023-05-20T18:35:22.539Z,18.28
2023-05-20T18:37:51.497Z,18.29
2023-05-20T18:40:20.704Z,18.16
2023-05-20T18:42:50.035Z,18.27
2023-05-20T18:45:18.157Z,18.13
2023-05-20T18:47:46.251Z,18.09
2023-05-20T18:50:14.273Z,18.19
2023-05-20T18:52:42.258Z,17.96
2023-05-20T18:55:10.551Z,18.04
2023-05-20T18:57:39.109Z,18.12
2023-05-20T19:00:12.452Z,17.92
2023-05-20T19:02:40.781Z,17.82
2023-05-20T19:05:11.812Z,17.80
2023-05-20T19:07:40.462Z,17.85
2023-05-20T19:10:09.861Z,17.90
2023-05-20T19:12:37.821Z,17.91
2023-05-20T19:15:06.639Z,17.75
2023-05-20T19:17:36.175Z,17.82
2023-05-20T19:20:07.230Z,17.95
2023-05-20T19:22:35.328Z,17.75
2023-05-20T19:25:03.293Z,17.94
2023-05-20T19:27:31.332Z,17.87
2023-05-20T19:29:59.697Z,17.94
2023-05-20T19:32:27.654Z,17.89
2023-05-20T19:34:56.954Z,17.56
2023-05-20T19:37:25.559Z,17.56
2023-05-20T19:39:53.642Z,17.69
2023-05-20T19:42:21.757Z,17.56
2023-05-20T19:44:50.472Z,17.46
2023-05-20T19:47:18.493Z,17.60
2023-05-20T19:49:46.527Z,17.69
2023-05-20T19:52:15.961Z,17.52
2023-05-20T19:54:43.926Z,17.42
2023-05-20T19:57:11.970Z,17.52
2023-05-20T19:59:39.900Z,17.65
2023-05-20T20:02:08.157Z,17.64
2023-05-20T20:04:36.241Z,17.58
2023-05-20T20:07:04.261Z,17.39
2023-05-20T20:09:33.567Z,17.36
2023-05-20T20:12:02.718Z,17.44
2023-05-20T20:14:30.709Z,17.41
2023-05-20T20:16:59.893Z,17.37
2023-05-20T20:19:28.647Z,17.32
2023-05-20T20:21:58.266Z,17.22
2023-05-20T20:24:27.664Z,17.16
2023-05-20T20:26:57.529Z,17.11
2023-05-20T20:29:25.652Z,17.06
2023-05-20T20:31:53.740Z,16.86
2023-05-20T20:34:22.098Z,16.80
2023-05-20T20:36:50.761Z,16.52
2023-05-20T20:39:20.042Z,16.58
2023-05-20T20:41:50.535Z,16.52
2023-05-20T20:44:22.718Z,16.39
2023-05-20T20:46:51.619Z,16.01
2023-05-20T20:49:19.961Z,16.39
2023-05-20T20:51:48.447Z,16.19
2023-05-20T20:54:16.830Z,16.17
2023-05-20T20:56:47.088Z,16.20
2023-05-20T20:59:15.898Z,16.17
2023-05-20T21:01:45.756Z,16.10
2023-05-20T21:04:14.602Z,16.03
2023-05-20T21:06:46.025Z,15.93
2023-05-20T21:09:14.273Z,15.96
2023-05-20T21:11:43.302Z,15.95
2023-05-20T21:14:11.455Z,15.92
2023-05-20T21:16:39.826Z,15.92
2023-05-20T21:19:09.335Z,15.85
2023-05-20T21:21:37.384Z,15.85
2023-05-20T21:24:05.514Z,15.88
2023-05-20T21:26:33.466Z,15.83
2023-05-20T21:29:01.435Z,15.85
2023-05-20T21:31:29.479Z,15.82
2023-05-20T21:33:57.543Z,15.82
2023-05-20T21:36:26.849Z,15.81
2023-05-20T21:38:54.881Z,15.77
2023-05-20T21:41:23.536Z,15.73
2023-05-20T21:43:51.611Z,15.72
2023-05-20T21:46:19.572Z,15.74
2023-05-20T21:48:47.548Z,15.71
2023-05-20T21:51:15.735Z,15.72
2023-05-20T21:53:45.154Z,15.74
2023-05-20T21:56:13.089Z,15.74
2023-05-20T21:58:41.913Z,15.74
2023-05-20T22:01:10.574Z,15.68
2023-05-20T22:03:40.077Z,15.69
2023-05-20T22:06:09.293Z,15.69
2023-05-20T22:08:37.203Z,15.71
2023-05-20T22:11:07.474Z,15.72
2023-05-20T22:13:41.368Z,15.70
2023-05-20T22:16:10.021Z,15.71
2023-05-20T22:18:38.546Z,15.70
2023-05-20T22:21:07.130Z,15.72
2023-05-20T22:23:35.139Z,15.72
2023-05-20T22:26:03.093Z,15.74
2023-05-20T22:28:32.411Z,15.74
2023-05-20T22:31:00.390Z,15.75
2023-05-20T22:33:28.336Z,15.77
2023-05-20T22:35:58.167Z,15.68
2023-05-20T22:38:26.185Z,15.74
2023-05-20T22:40:54.149Z,15.73
2023-05-20T22:43:23.468Z,15.69
2023-05-20T22:45:52.827Z,15.68
2023-05-20T22:48:23.072Z,15.67
2023-05-20T22:50:51.308Z,15.62
2023-05-20T22:53:19.354Z,15.62
2023-05-20T22:55:47.452Z,15.59
2023-05-20T22:58:15.620Z,15.61
2023-05-20T23:00:44.569Z,15.59
2023-05-20T23:03:14.042Z,15.57
2023-05-20T23:05:42.059Z,15.54
2023-05-20T23:08:10.022Z,15.50
2023-05-20T23:10:38.172Z,15.49
2023-05-20T23:13:06.112Z,15.40
2023-05-20T23:15:34.284Z,15.42
2023-05-20T23:18:02.457Z,15.38
2023-05-20T23:20:31.923Z,15.38
2023-05-20T23:23:05.603Z,15.36
2023-05-20T23:25:39.228Z,15.29
2023-05-20T23:28:07.505Z,15.26
2023-05-20T23:30:35.939Z,15.20
2023-05-20T23:33:04.611Z,15.17
2023-05-20T23:35:34.245Z,15.05
2023-05-20T23:38:02.439Z,14.97
2023-05-20T23:40:30.614Z,14.95
2023-05-20T23:42:58.570Z,14.92
2023-05-20T23:45:26.514Z,14.89
2023-05-20T23:47:55.602Z,14.86
2023-05-20T23:50:23.828Z,14.81
2023-05-20T23:52:53.155Z,14.72
2023-05-20T23:55:21.394Z,14.63
2023-05-20T23:57:49.843Z,14.53
